Time;durP1;ratioP1;P1;durP2;ratioP2;P2;SDS_P1;SDS_P2;PMS_P1;PMS_P2;Temp;Humidity;BMP_temperature;BMP_pressure;BME280_temperature;BME280_humidity;BME280_pressure;Samples;Min_cycle;Max_cycle;Signal;HPM_P1;HPM_P2
2021/12/25 00:00:10;;;;;;;0.22;0.22;;;;;;;22.46;3.78;97864.13;5117937;27;20034;-78
2021/12/25 00:02:35;;;;;;;0.30;0.30;;;;;;;22.44;3.78;97865.59;5136178;27;20051;-78
2021/12/25 00:05:01;;;;;;;0.40;0.40;;;;;;;22.45;3.89;97861.72;5136307;27;20016;-77
2021/12/25 00:07:26;;;;;;;0.40;0.40;;;;;;;22.47;3.78;97868.44;5136179;27;20139;-77
2021/12/25 00:09:54;;;;;;;0.30;0.30;;;;;;;22.45;3.89;97864.44;5132458;27;20043;-78
2021/12/25 00:12:20;;;;;;;0.30;0.30;;;;;;;22.45;3.76;97867.16;5115400;28;20041;-78
2021/12/25 00:14:45;;;;;;;0.40;0.40;;;;;;;22.46;3.79;97866.84;5115272;28;20454;-78
2021/12/25 00:17:11;;;;;;;0.30;0.30;;;;;;;22.46;3.79;97864.13;5097180;28;20458;-78
2021/12/25 00:19:36;;;;;;;0.30;0.30;;;;;;;22.47;3.70;97873.91;5115324;28;20033;-78
2021/12/25 00:22:01;;;;;;;0.32;0.32;;;;;;;22.43;3.77;97872.16;5115900;28;20038;-78
2021/12/25 00:24:27;;;;;;;0.22;0.22;;;;;;;22.44;3.67;97871.03;5115062;28;20462;-78
2021/12/25 00:27:09;;;;;;;0.20;0.20;;;;;;;22.45;3.68;97872.59;5115067;28;20024;-78
2021/12/25 00:29:51;;;;;;;0.30;0.30;;;;;;;22.46;3.96;97874.22;5114945;28;20024;-77
2021/12/25 00:34:48;;;;;;;0.30;0.30;;;;;;;22.47;3.82;97889.41;5115408;28;20027;-78
2021/12/25 00:37:14;;;;;;;0.30;0.30;;;;;;;22.44;3.78;97887.34;5114547;28;20097;-78
2021/12/25 00:39:39;;;;;;;0.32;0.30;;;;;;;22.45;3.88;97895.16;5095792;28;20069;-78
2021/12/25 00:42:05;;;;;;;0.30;0.30;;;;;;;22.47;3.78;97897.56;5079820;28;20095;-78
2021/12/25 00:44:32;;;;;;;0.43;0.20;;;;;;;22.46;3.82;97887.81;5063407;28;20119;-78
2021/12/25 00:47:00;;;;;;;0.40;0.40;;;;;;;22.46;3.81;97890.53;5079944;28;20081;-78
2021/12/25 00:49:26;;;;;;;0.20;0.20;;;;;;;22.46;3.82;97898.72;5096655;28;20551;-78
2021/12/25 00:51:51;;;;;;;0.22;0.22;;;;;;;22.46;3.85;97894.06;5114613;28;20048;-78
2021/12/25 00:54:17;;;;;;;0.30;0.30;;;;;;;22.46;3.78;97904.16;5114727;28;20046;-78
2021/12/25 00:56:42;;;;;;;0.30;0.30;;;;;;;22.45;3.83;97899.81;5114686;28;20148;-78
2021/12/25 00:59:07;;;;;;;0.30;0.30;;;;;;;22.46;3.90;97904.94;5114556;28;20065;-78
2021/12/25 01:01:33;;;;;;;0.30;0.30;;;;;;;22.44;3.83;97903.69;5114318;28;20031;-78
2021/12/25 01:03:58;;;;;;;0.30;0.30;;;;;;;22.46;3.82;97904.16;5114417;28;20034;-78
2021/12/25 01:06:24;;;;;;;0.30;0.30;;;;;;;22.46;3.95;97902.22;5114442;28;20020;-77
2021/12/25 01:08:49;;;;;;;0.32;0.30;;;;;;;22.46;3.75;97915.03;5114445;28;20028;-78
2021/12/25 01:11:14;;;;;;;0.38;0.38;;;;;;;22.44;3.85;97920.81;5129109;27;20427;-78
2021/12/25 01:13:47;;;;;;;0.30;0.30;;;;;;;22.44;3.97;97920.81;5135475;27;20019;-78
2021/12/25 01:29:34;;;;;;;0.30;0.30;;;;;;;22.44;3.88;97941.78;5118348;28;20485;-77
2021/12/25 01:48:25;;;;;;;0.20;0.20;;;;;;;22.50;3.88;97963.03;5134549;28;20096;-78
2021/12/25 01:50:50;;;;;;;0.20;0.20;;;;;;;22.47;3.89;97960.97;5125237;27;20626;-78
2021/12/25 01:53:16;;;;;;;0.50;0.30;;;;;;;22.44;3.95;97966.28;5117944;28;20519;-78
2021/12/25 01:55:41;;;;;;;0.22;0.22;;;;;;;22.43;3.87;97967.38;5118304;28;20023;-78
2021/12/25 01:58:06;;;;;;;0.40;0.40;;;;;;;22.44;4.02;97955.41;5118059;28;20458;-78
2021/12/25 02:00:44;;;;;;;0.35;0.32;;;;;;;22.44;4.03;97961.63;5117977;28;20086;-79
2021/12/25 02:03:10;;;;;;;0.20;0.20;;;;;;;22.45;4.05;97965.13;5117927;28;20023;-78
2021/12/25 02:05:36;;;;;;;0.32;0.32;;;;;;;22.44;4.11;97969.78;5117610;28;20028;-78
2021/12/25 02:08:01;;;;;;;0.32;0.32;;;;;;;22.41;4.05;97964.19;5099381;28;20028;-78
2021/12/25 02:10:27;;;;;;;0.30;0.30;;;;;;;22.44;4.05;97964.34;5125656;27;20043;-78
2021/12/25 02:12:52;;;;;;;0.30;0.30;;;;;;;22.44;4.05;97960.84;5138329;27;20027;-78
2021/12/25 02:15:20;;;;;;;0.30;0.30;;;;;;;22.45;4.21;97962.41;5137906;27;20053;-78
2021/12/25 02:20:52;;;;;;;0.30;0.30;;;;;;;22.43;4.10;97967.38;5075084;28;20136;-78
2021/12/25 02:23:21;;;;;;;0.30;0.30;;;;;;;22.43;4.10;97967.38;5074523;28;20031;-78
2021/12/25 02:25:47;;;;;;;0.30;0.30;;;;;;;22.44;4.08;97964.34;5058017;28;20414;-78
2021/12/25 02:28:13;;;;;;;0.30;0.30;;;;;;;22.44;4.13;97974.44;5057742;28;20039;-78
2021/12/25 02:30:39;;;;;;;0.30;0.30;;;;;;;22.42;4.17;97971.22;5074185;28;20442;-78
2021/12/25 02:33:05;;;;;;;0.30;0.30;;;;;;;22.42;4.17;97971.22;5075125;28;20028;-77
2021/12/25 02:35:30;;;;;;;0.32;0.32;;;;;;;22.44;4.11;97979.88;5074209;28;20024;-79
2021/12/25 02:37:56;;;;;;;0.40;0.40;;;;;;;22.42;4.21;97977.47;5074150;28;20044;-79
2021/12/25 02:40:22;;;;;;;0.30;0.30;;;;;;;22.42;4.20;97984.81;5074167;28;20024;-78
2021/12/25 02:42:47;;;;;;;0.20;0.20;;;;;;;22.43;4.14;97983.72;5074214;28;20051;-78
2021/12/25 02:45:18;;;;;;;0.30;0.30;;;;;;;22.42;4.20;97985.66;5057515;28;20040;-78
2021/12/25 02:47:45;;;;;;;0.35;0.35;;;;;;;22.40;4.21;97985.16;5057877;28;20039;-78
2021/12/25 02:50:11;;;;;;;0.30;0.30;;;;;;;22.40;4.25;97981.63;5078250;28;20111;-78
2021/12/25 02:52:36;;;;;;;0.28;0.28;;;;;;;22.40;3.95;97989.81;5094231;28;20028;-78
2021/12/25 02:55:02;;;;;;;0.30;0.30;;;;;;;22.43;4.30;97987.22;5094345;28;20027;-78
2021/12/25 02:57:27;;;;;;;0.30;0.30;;;;;;;22.41;4.17;97984.03;5123057;27;20071;-78
2021/12/25 02:59:53;;;;;;;0.20;0.20;;;;;;;22.42;4.18;97987.56;5119295;27;20030;-78
2021/12/25 03:02:18;;;;;;;0.30;0.30;;;;;;;22.43;4.25;97986.44;5135994;27;20513;-78
2021/12/25 03:04:46;;;;;;;0.22;0.22;;;;;;;22.41;4.08;97988.69;5101853;27;20023;-78
2021/12/25 03:07:11;;;;;;;0.20;0.20;;;;;;;22.40;4.23;97989.81;5137458;27;20094;-78
2021/12/25 03:09:37;;;;;;;0.20;0.20;;;;;;;22.39;4.15;97999.09;5137165;27;20030;-78
2021/12/25 03:12:05;;;;;;;0.20;0.20;;;;;;;22.40;4.15;97995.25;5137375;27;20038;-78
2021/12/25 03:14:39;;;;;;;0.30;0.30;;;;;;;22.43;4.13;97983.72;5137463;27;20047;-78
2021/12/25 03:17:04;;;;;;;0.20;0.20;;;;;;;22.42;4.13;97990.28;5137183;27;20031;-78
2021/12/25 03:19:32;;;;;;;0.30;0.30;;;;;;;22.43;4.01;97989.16;5137570;27;20033;-78
2021/12/25 03:22:01;;;;;;;0.30;0.30;;;;;;;22.40;4.08;97985.16;5137368;27;20384;-78
2021/12/25 03:24:28;;;;;;;0.20;0.20;;;;;;;22.41;4.10;97991.41;5118669;27;20489;-78
2021/12/25 03:26:56;;;;;;;0.20;0.20;;;;;;;22.40;4.05;97996.03;5118410;27;20481;-78
2021/12/25 03:29:22;;;;;;;0.30;0.30;;;;;;;22.41;4.03;97986.75;5119173;27;20034;-78
2021/12/25 03:31:49;;;;;;;0.30;0.30;;;;;;;22.41;4.10;97991.41;5102408;27;20034;-79
2021/12/25 03:34:14;;;;;;;0.30;0.30;;;;;;;22.39;4.08;97989.00;5144777;27;20028;-78
2021/12/25 03:36:40;;;;;;;0.30;0.30;;;;;;;22.42;4.00;97998.44;5158355;27;20027;-78
2021/12/25 03:39:06;;;;;;;0.28;0.28;;;;;;;22.41;4.03;97999.56;5123413;27;20027;-78
2021/12/25 03:41:32;;;;;;;0.22;0.22;;;;;;;22.38;4.12;97997.50;5123395;27;20027;-78
2021/12/25 03:43:58;;;;;;;0.25;0.25;;;;;;;22.39;4.15;97997.16;5139600;27;20023;-78
2021/12/25 03:46:23;;;;;;;0.30;0.30;;;;;;;22.42;3.98;97998.44;5139759;27;20026;-78
2021/12/25 03:59:29;;;;;;;0.40;0.40;;;;;;;22.43;3.91;97995.38;5143127;27;20116;-78
2021/12/25 04:02:00;;;;;;;0.20;0.20;;;;;;;22.43;3.97;98005.47;5143735;27;20023;-78
2021/12/25 04:04:34;;;;;;;0.22;0.22;;;;;;;22.40;3.83;98000.69;5122443;27;20084;-78
2021/12/25 04:07:05;;;;;;;0.20;0.20;;;;;;;22.40;3.92;97995.25;5104465;27;20471;-79
2021/12/25 04:09:33;;;;;;;0.22;0.22;;;;;;;22.40;3.90;97995.25;5136729;27;20027;-78
2021/12/25 04:12:06;;;;;;;0.20;0.20;;;;;;;22.38;3.96;98000.22;5158362;27;20029;-78
2021/12/25 04:14:32;;;;;;;0.30;0.30;;;;;;;22.40;4.01;97993.31;5161354;27;20021;-78
2021/12/25 04:16:58;;;;;;;0.28;0.28;;;;;;;22.40;3.87;98000.69;5125178;27;20111;-78
2021/12/25 04:19:24;;;;;;;0.20;0.20;;;;;;;22.38;3.92;97997.50;5122758;27;20461;-78
2021/12/25 04:22:00;;;;;;;0.30;0.30;;;;;;;22.36;3.85;98007.91;5122804;27;20030;-78
2021/12/25 04:24:28;;;;;;;0.25;0.25;;;;;;;22.38;3.71;97997.50;5142002;27;20035;-78
2021/12/25 04:26:54;;;;;;;0.30;0.30;;;;;;;22.38;3.75;97998.28;5140825;27;20038;-78
2021/12/25 05:01:51;;;;;;;0.35;0.30;;;;;;;22.36;3.56;97984.22;5104933;27;20080;-78
2021/12/25 05:04:31;;;;;;;0.20;0.20;;;;;;;22.36;3.61;97978.78;5105315;27;20035;-78
2021/12/25 05:06:56;;;;;;;0.30;0.30;;;;;;;22.33;3.59;97989.50;5104000;27;20027;-78
2021/12/25 05:09:21;;;;;;;0.20;0.20;;;;;;;22.31;3.49;97987.88;5134986;27;20092;-78
2021/12/25 05:11:47;;;;;;;0.22;0.22;;;;;;;22.34;3.44;97980.22;5096645;28;20102;-78
2021/12/25 05:14:12;;;;;;;0.20;0.20;;;;;;;22.30;3.54;97985.50;5096333;28;20043;-78
2021/12/25 05:16:38;;;;;;;0.20;0.20;;;;;;;22.30;3.44;97982.78;5079054;28;20020;-78
2021/12/25 05:19:03;;;;;;;0.30;0.30;;;;;;;22.30;3.45;97980.06;5079259;28;20031;-77
2021/12/25 05:21:29;;;;;;;0.30;0.30;;;;;;;22.28;3.41;97982.31;5079340;28;20469;-78
2021/12/25 05:23:54;;;;;;;0.22;0.22;;;;;;;22.28;3.71;97988.56;5095798;28;20489;-77
2021/12/25 05:26:20;;;;;;;0.30;0.30;;;;;;;22.28;3.50;97985.84;5095512;28;20035;-78
2021/12/25 05:28:56;;;;;;;0.20;0.20;;;;;;;22.29;3.38;97979.25;5095868;28;20024;-77
2021/12/25 05:31:21;;;;;;;0.38;0.30;;;;;;;22.23;3.44;97969.66;5114349;28;20038;-77
2021/12/25 05:33:47;;;;;;;0.30;0.30;;;;;;;22.29;3.37;97973.03;5078958;28;20036;-77
2021/12/25 05:36:13;;;;;;;0.20;0.20;;;;;;;22.28;3.28;97972.25;5079200;28;20028;-78
2021/12/25 05:38:38;;;;;;;0.30;0.30;;;;;;;22.26;3.31;97977.16;5114101;28;20024;-78
2021/12/25 05:41:03;;;;;;;0.30;0.30;;;;;;;22.28;3.35;97972.25;5114235;28;20047;-78
2021/12/25 05:43:29;;;;;;;0.40;0.40;;;;;;;22.29;3.23;97971.09;5114174;28;20085;-77
2021/12/25 05:45:54;;;;;;;0.20;0.20;;;;;;;22.31;3.05;97977.00;5095944;28;20024;-77
2021/12/25 05:48:20;;;;;;;0.25;0.25;;;;;;;22.25;3.18;97981.00;5079155;28;20043;-77
2021/12/25 05:50:45;;;;;;;0.20;0.20;;;;;;;22.28;3.19;97977.69;5095823;28;20454;-78
2021/12/25 05:53:11;;;;;;;0.30;0.30;;;;;;;22.29;3.11;97975.75;5078910;28;20027;-78
2021/12/25 05:55:36;;;;;;;0.20;0.20;;;;;;;22.20;3.17;97969.50;5078943;28;20020;-77
2021/12/25 05:58:03;;;;;;;0.30;0.30;;;;;;;22.22;3.37;97973.50;5078833;28;20028;-78
2021/12/25 06:00:30;;;;;;;0.25;0.25;;;;;;;22.23;3.37;97980.53;5079375;28;20023;-77
2021/12/25 06:02:55;;;;;;;0.40;0.40;;;;;;;22.27;3.28;97978.78;5061944;28;20024;-77
2021/12/25 06:05:21;;;;;;;0.20;0.20;;;;;;;22.22;3.35;97976.22;5079702;28;20031;-77
2021/12/25 06:07:46;;;;;;;0.20;0.20;;;;;;;22.26;3.37;97976.38;5078917;28;20485;-77
2021/12/25 06:10:12;;;;;;;0.20;0.20;;;;;;;22.25;3.42;97978.28;5084923;28;20031;-77
2021/12/25 06:12:38;;;;;;;0.40;0.40;;;;;;;22.22;3.69;97978.16;5098789;28;20027;-78
2021/12/25 06:15:08;;;;;;;0.40;0.40;;;;;;;22.23;3.53;97974.28;5098980;28;20019;-78
2021/12/25 06:17:33;;;;;;;0.40;0.40;;;;;;;22.25;3.37;97972.03;5134299;28;20019;-77
2021/12/25 06:19:58;;;;;;;0.40;0.40;;;;;;;22.22;3.56;97967.25;5099054;28;20420;-77
2021/12/25 06:22:24;;;;;;;0.50;0.50;;;;;;;22.26;3.42;97969.00;5134320;28;20027;-78
2021/12/25 06:24:49;;;;;;;0.40;0.40;;;;;;;22.23;3.49;97969.66;5134178;28;20411;-78
2021/12/25 06:27:18;;;;;;;0.50;0.50;;;;;;;22.24;3.66;97973.97;5115648;28;20030;-78
2021/12/25 06:29:44;;;;;;;0.63;0.63;;;;;;;22.22;3.75;97965.34;5115810;28;20098;-78
2021/12/25 06:32:10;;;;;;;0.60;0.60;;;;;;;22.21;3.69;97968.38;5098806;28;20038;-77
2021/12/25 06:34:35;;;;;;;0.55;0.55;;;;;;;22.21;3.88;97971.09;5099058;28;20026;-79
2021/12/25 06:37:01;;;;;;;0.65;0.65;;;;;;;22.20;3.78;97964.84;5117821;27;20072;-77
2021/12/25 06:39:26;;;;;;;0.50;0.50;;;;;;;22.25;3.88;97967.41;5119544;27;20457;-77
2021/12/25 06:41:52;;;;;;;0.65;0.65;;;;;;;22.26;3.82;97966.28;5119571;27;20483;-77
2021/12/25 06:44:17;;;;;;;0.50;0.50;;;;;;;22.19;3.75;97954.31;5137629;27;20521;-78
2021/12/25 06:46:43;;;;;;;0.50;0.50;;;;;;;22.20;3.96;97956.69;5119433;27;20033;-78
2021/12/25 06:49:09;;;;;;;0.55;0.55;;;;;;;22.21;3.76;97954.78;5119505;27;20058;-78
2021/12/25 06:51:35;;;;;;;0.50;0.50;;;;;;;22.20;3.96;97956.69;5102047;27;20023;-78
2021/12/25 06:54:02;;;;;;;0.40;0.40;;;;;;;22.19;3.99;97952.38;5119413;27;20023;-78
2021/12/25 06:56:27;;;;;;;0.50;0.50;;;;;;;22.23;4.06;97953.34;5118995;27;20022;-78
2021/12/25 06:58:52;;;;;;;0.40;0.40;;;;;;;22.20;4.05;97945.03;5119172;27;20015;-77
2021/12/25 07:01:18;;;;;;;0.47;0.47;;;;;;;22.23;4.11;97949.78;5119240;27;20023;-78
2021/12/25 07:03:43;;;;;;;0.40;0.40;;;;;;;22.25;4.18;97956.53;5102141;27;20388;-77
2021/12/25 07:06:10;;;;;;;0.50;0.50;;;;;;;22.18;4.19;97953.50;5137301;27;20366;-78
2021/12/25 07:08:35;;;;;;;0.43;0.43;;;;;;;22.18;4.19;97942.63;5137095;27;20034;-78
2021/12/25 07:11:01;;;;;;;0.50;0.50;;;;;;;22.22;4.19;97940.84;5136725;27;20032;-78
2021/12/25 07:13:26;;;;;;;0.50;0.50;;;;;;;22.20;4.15;97948.53;5101845;27;20019;-78
2021/12/25 07:15:51;;;;;;;0.50;0.50;;;;;;;22.23;4.12;97947.91;5137214;27;20045;-78
2021/12/25 07:18:17;;;;;;;0.40;0.40;;;;;;;22.21;4.15;97950.13;5136957;27;20030;-77
2021/12/25 07:20:44;;;;;;;0.40;0.40;;;;;;;22.22;4.22;97942.78;5137136;27;20464;-77
2021/12/25 07:23:10;;;;;;;0.50;0.50;;;;;;;22.26;4.19;97946.44;5137106;27;20038;-78
2021/12/25 07:25:35;;;;;;;0.35;0.35;;;;;;;22.26;4.04;97947.22;5137009;27;20041;-77
2021/12/25 07:28:01;;;;;;;0.50;0.50;;;;;;;22.23;4.10;97941.63;5118204;27;20366;-78
2021/12/25 07:30:26;;;;;;;0.50;0.50;;;;;;;22.22;4.10;97931.91;5101143;27;20038;-78
2021/12/25 07:32:51;;;;;;;0.60;0.60;;;;;;;22.25;4.13;97940.22;5101289;27;20027;-77
2021/12/25 07:35:17;;;;;;;0.50;0.50;;;;;;;22.22;4.19;97935.41;5136511;27;20050;-77
2021/12/25 07:37:42;;;;;;;0.60;0.60;;;;;;;22.21;4.28;97944.69;5118245;27;20027;-77
2021/12/25 07:40:11;;;;;;;0.77;0.75;;;;;;;22.22;4.28;97940.84;5118378;27;20061;-78
2021/12/25 07:42:36;;;;;;;0.80;0.80;;;;;;;22.25;4.28;97934.75;5102261;27;20023;-77
2021/12/25 07:45:05;;;;;;;0.73;0.70;;;;;;;22.19;4.37;97935.25;5118333;27;20026;-78
2021/12/25 07:47:32;;;;;;;1.27;0.52;;;;;;;22.24;4.28;97943.25;5135902;27;20023;-78
2021/12/25 07:49:59;;;;;;;0.70;0.70;;;;;;;22.22;4.38;97935.41;5136220;27;20116;-78
2021/12/25 07:52:25;;;;;;;0.63;0.60;;;;;;;22.22;4.52;97934.63;5101048;28;20111;-78
2021/12/25 07:54:50;;;;;;;0.68;0.50;;;;;;;22.23;4.36;97937.00;5080944;28;20062;-78
2021/12/25 07:57:16;;;;;;;0.50;0.50;;;;;;;22.24;4.42;97940.53;5115909;28;20024;-78
2021/12/25 07:59:41;;;;;;;0.50;0.50;;;;;;;22.24;4.54;97937.81;5115375;28;20466;-77
2021/12/25 08:02:07;;;;;;;1.38;0.60;;;;;;;22.27;4.38;97932.53;5097970;28;20035;-77
2021/12/25 08:04:32;;;;;;;0.60;0.60;;;;;;;22.20;4.65;97926.78;5097400;28;20369;-78
2021/12/25 08:06:57;;;;;;;0.50;0.50;;;;;;;22.21;4.57;97922.91;5115225;28;20062;-79
2021/12/25 08:09:29;;;;;;;0.50;0.50;;;;;;;22.20;4.69;97918.63;5115649;28;20127;-78
2021/12/25 08:11:57;;;;;;;0.50;0.50;;;;;;;22.22;4.81;97918.28;5116515;28;20031;-78
2021/12/25 08:14:25;;;;;;;0.47;0.47;;;;;;;22.21;4.89;97917.47;5115451;28;20024;-77
2021/12/25 08:16:52;;;;;;;0.50;0.50;;;;;;;22.26;5.02;97917.28;5115465;28;20023;-77
2021/12/25 08:19:17;;;;;;;0.65;0.60;;;;;;;22.24;4.98;97916.84;5115186;28;20031;-77
2021/12/25 08:21:43;;;;;;;0.50;0.50;;;;;;;22.20;5.02;97915.91;5115187;28;20020;-77
2021/12/25 08:24:08;;;;;;;0.40;0.40;;;;;;;22.22;5.12;97915.56;5114748;28;20381;-78
2021/12/25 08:26:34;;;;;;;0.30;0.30;;;;;;;22.23;5.12;97912.53;5115037;28;20020;-78
2021/12/25 08:28:59;;;;;;;0.40;0.40;;;;;;;22.20;5.14;97910.44;5115097;28;20132;-77
2021/12/25 08:31:24;;;;;;;0.50;0.50;;;;;;;22.23;5.21;97920.69;5115101;28;20480;-78
2021/12/25 08:33:50;;;;;;;0.60;0.60;;;;;;;22.25;5.14;97912.19;5114796;28;20039;-78
2021/12/25 08:36:15;;;;;;;0.47;0.47;;;;;;;22.23;5.24;97909.81;5079855;28;20024;-77
2021/12/25 08:38:41;;;;;;;0.57;0.57;;;;;;;22.24;5.36;97911.38;5114788;28;20019;-78
2021/12/25 08:41:06;;;;;;;0.38;0.30;;;;;;;22.20;5.33;97909.66;5096587;28;20024;-78
2021/12/25 08:43:35;;;;;;;0.40;0.40;;;;;;;22.25;5.45;97914.91;5114638;28;20022;-78
2021/12/25 08:46:03;;;;;;;0.40;0.40;;;;;;;22.26;5.43;97914.56;5114776;28;20103;-78
2021/12/25 08:48:30;;;;;;;0.30;0.30;;;;;;;22.21;5.48;97906.59;5115074;28;20496;-78
2021/12/25 08:50:56;;;;;;;0.40;0.40;;;;;;;22.17;5.55;97902.94;5117617;27;20030;-78
2021/12/25 08:53:23;;;;;;;0.40;0.40;;;;;;;22.24;5.52;97916.84;5116519;27;20026;-78
2021/12/25 08:55:48;;;;;;;0.35;0.35;;;;;;;22.19;5.59;97906.13;5135142;27;20106;-78
2021/12/25 08:58:14;;;;;;;0.40;0.40;;;;;;;22.26;5.64;97903.69;5135457;27;20106;-79
2021/12/25 09:00:40;;;;;;;0.40;0.40;;;;;;;22.27;5.81;97899.06;5134449;27;20131;-78
2021/12/25 09:03:05;;;;;;;0.40;0.40;;;;;;;22.22;5.72;97894.59;5116409;27;20457;-78
2021/12/25 09:05:32;;;;;;;0.30;0.30;;;;;;;22.27;5.71;97899.91;5135055;27;20023;-77
2021/12/25 09:07:57;;;;;;;0.40;0.40;;;;;;;22.23;5.72;97901.66;5116854;27;20027;-78
2021/12/25 09:10:25;;;;;;;0.30;0.30;;;;;;;22.26;5.83;97908.34;5134692;27;20065;-78
2021/12/25 09:12:50;;;;;;;0.30;0.30;;;;;;;22.26;5.91;97903.69;5134952;27;20027;-78
2021/12/25 09:15:16;;;;;;;0.30;0.30;;;;;;;22.26;5.96;97903.69;5134907;27;20025;-79
2021/12/25 09:17:42;;;;;;;0.40;0.40;;;;;;;22.23;5.92;97898.09;5134583;27;20388;-78
2021/12/25 09:20:08;;;;;;;0.30;0.30;;;;;;;22.21;5.95;97890.28;5099841;28;20087;-78
2021/12/25 09:22:34;;;;;;;0.30;0.30;;;;;;;22.24;6.14;97899.72;5135618;27;20392;-77
2021/12/25 09:24:59;;;;;;;0.40;0.40;;;;;;;22.28;6.15;97892.53;5135057;27;20034;-77
2021/12/25 09:27:24;;;;;;;0.38;0.38;;;;;;;22.23;6.05;97887.22;5134428;27;20015;-77
2021/12/25 09:29:50;;;;;;;0.40;0.40;;;;;;;22.29;6.23;97892.19;5134229;27;20031;-78
2021/12/25 09:32:15;;;;;;;0.30;0.30;;;;;;;22.28;6.22;97890.63;5116421;28;20023;-78
2021/12/25 09:34:41;;;;;;;0.30;0.30;;;;;;;22.26;6.27;97883.88;5116324;28;20338;-77
2021/12/25 09:37:06;;;;;;;0.30;0.30;;;;;;;22.27;6.37;97883.56;5134526;28;20027;-77
2021/12/25 09:39:32;;;;;;;0.40;0.40;;;;;;;22.28;6.31;97881.63;5116361;28;20023;-77
2021/12/25 09:41:58;;;;;;;0.40;0.40;;;;;;;22.31;6.48;97883.72;5116310;28;20019;-78
2021/12/25 09:44:23;;;;;;;0.30;0.30;;;;;;;22.28;6.50;97881.63;5134539;28;20034;-78
2021/12/25 09:46:49;;;;;;;0.40;0.40;;;;;;;22.32;6.47;97879.88;5116398;28;20031;-78
2021/12/25 09:49:14;;;;;;;0.40;0.40;;;;;;;22.24;6.52;97878.75;5116210;28;20029;-77
2021/12/25 09:51:40;;;;;;;0.22;0.22;;;;;;;22.29;6.50;97885.97;5091504;28;20028;-77
2021/12/25 09:54:10;;;;;;;0.35;0.32;;;;;;;22.30;6.62;97879.38;5078874;28;20023;-77
2021/12/25 09:56:36;;;;;;;0.40;0.30;;;;;;;22.28;6.56;97878.91;5096507;28;20016;-78
2021/12/25 09:59:03;;;;;;;0.40;0.40;;;;;;;22.26;6.64;97876.50;5095824;28;20103;-78
2021/12/25 10:01:31;;;;;;;0.40;0.40;;;;;;;22.27;6.68;97883.56;5095882;28;20468;-78
2021/12/25 10:03:57;;;;;;;0.35;0.35;;;;;;;22.26;6.68;97873.78;5114026;28;20028;-78
2021/12/25 10:06:32;;;;;;;0.30;0.30;;;;;;;22.29;6.73;97870.44;5095750;28;20034;-78
2021/12/25 10:08:57;;;;;;;0.30;0.30;;;;;;;22.27;6.81;97861.81;5113432;28;20081;-78
2021/12/25 10:11:23;;;;;;;0.30;0.30;;;;;;;22.28;6.77;97862.59;5130513;27;20110;-78
2021/12/25 10:13:48;;;;;;;0.30;0.30;;;;;;;22.28;6.77;97866.13;5138216;27;20027;-78
2021/12/25 10:16:30;;;;;;;0.30;0.30;;;;;;;22.28;6.92;97866.13;5138439;27;20019;-78
2021/12/25 10:19:15;;;;;;;0.30;0.30;;;;;;;22.37;6.95;97865.28;5138353;27;20023;-78
2021/12/25 10:21:40;;;;;;;0.40;0.40;;;;;;;22.33;7.01;97858.91;5138386;27;20065;-78
2021/12/25 10:24:10;;;;;;;0.30;0.30;;;;;;;22.34;7.15;97868.69;5137939;27;20480;-78
2021/12/25 10:26:36;;;;;;;0.30;0.30;;;;;;;22.33;7.03;97865.13;5138012;27;20031;-78
2021/12/25 10:29:17;;;;;;;0.43;0.43;;;;;;;22.37;7.03;97866.09;5138544;27;20027;-78
2021/12/25 10:31:43;;;;;;;0.30;0.30;;;;;;;22.29;7.10;97865.00;5138664;27;20092;-78
2021/12/25 10:34:13;;;;;;;0.50;0.45;;;;;;;22.32;7.16;97871.72;5120570;27;20023;-78
2021/12/25 10:36:38;;;;;;;0.35;0.35;;;;;;;22.30;7.20;97861.16;5138757;27;20058;-78
2021/12/25 10:39:09;;;;;;;0.30;0.30;;;;;;;22.30;7.13;97866.59;5138974;27;20058;-77
2021/12/25 10:41:37;;;;;;;0.40;0.40;;;;;;;22.32;7.18;97869.00;5120859;27;20031;-78
2021/12/25 10:44:33;;;;;;;0.40;0.40;;;;;;;22.41;7.30;97864.31;5139692;27;20031;-78
2021/12/25 10:47:00;;;;;;;0.30;0.30;;;;;;;22.35;7.26;97867.53;5054805;28;20082;-77
2021/12/25 10:49:28;;;;;;;0.50;0.40;;;;;;;22.34;7.28;97866.75;5054226;28;20029;-77
2021/12/25 10:51:55;;;;;;;0.30;0.30;;;;;;;22.32;7.30;97863.56;5054199;28;20044;-78
2021/12/25 10:54:36;;;;;;;0.32;0.32;;;;;;;22.32;7.31;97858.13;5054639;28;20383;-78
2021/12/25 10:57:02;;;;;;;0.45;0.45;;;;;;;22.31;7.36;97851.06;5053986;28;20391;-78
2021/12/25 10:59:27;;;;;;;0.30;0.30;;;;;;;22.33;7.46;97859.69;5053767;28;20032;-77
2021/12/25 11:01:53;;;;;;;0.40;0.40;;;;;;;22.32;7.54;97852.69;5037403;28;20110;-77
2021/12/25 11:04:32;;;;;;;0.40;0.40;;;;;;;22.36;7.54;97852.81;5054105;28;20037;-77
2021/12/25 11:06:58;;;;;;;0.30;0.30;;;;;;;22.33;7.47;97853.47;5053776;28;20040;-77
2021/12/25 11:09:23;;;;;;;0.30;0.30;;;;;;;22.32;7.46;97847.22;5053699;28;20119;-79
2021/12/25 11:12:21;;;;;;;0.20;0.20;;;;;;;22.40;7.52;97842.88;5053437;28;20103;-78
2021/12/25 11:14:46;;;;;;;0.30;0.30;;;;;;;22.34;7.58;97850.41;5053613;28;20040;-78
2021/12/25 11:17:24;;;;;;;0.40;0.40;;;;;;;22.34;7.54;97849.63;5037108;28;20041;-77
2021/12/25 11:19:58;;;;;;;0.30;0.30;;;;;;;22.32;7.60;97852.69;5053445;28;20036;-77
2021/12/25 11:22:25;;;;;;;0.30;0.30;;;;;;;22.35;7.55;97846.56;5062007;28;20440;-77
2021/12/25 11:24:50;;;;;;;0.40;0.40;;;;;;;22.34;7.63;97834.09;5136754;27;20377;-78
2021/12/25 11:27:16;;;;;;;0.40;0.40;;;;;;;22.36;7.64;97844.66;5137817;27;20019;-78
2021/12/25 11:29:41;;;;;;;0.40;0.40;;;;;;;22.36;7.67;97836.50;5118694;27;20042;-78
2021/12/25 11:32:08;;;;;;;0.30;0.30;;;;;;;22.36;7.67;97839.22;5137237;27;20039;-78
2021/12/25 11:34:34;;;;;;;0.20;0.20;;;;;;;22.34;7.64;97834.09;5120754;27;20124;-78
2021/12/25 11:37:00;;;;;;;0.50;0.40;;;;;;;22.34;7.61;97827.88;5123619;27;20023;-78
2021/12/25 11:39:27;;;;;;;0.30;0.30;;;;;;;22.31;7.87;97824.66;5134380;27;20023;-78
2021/12/25 11:41:58;;;;;;;0.40;0.40;;;;;;;22.33;7.79;97821.59;5136636;27;20027;-78
2021/12/25 11:44:46;;;;;;;0.30;0.30;;;;;;;22.37;7.70;97824.47;5137400;27;20053;-78
2021/12/25 11:47:36;;;;;;;0.30;0.30;;;;;;;22.41;7.69;97822.69;5136625;27;20489;-78
2021/12/25 11:50:05;;;;;;;0.30;0.30;;;;;;;22.33;7.66;97820.81;5137131;27;20028;-78
2021/12/25 11:52:38;;;;;;;0.30;0.30;;;;;;;22.34;7.89;97819.69;5125036;27;20027;-78
2021/12/25 11:58:18;;;;;;;0.30;0.30;;;;;;;22.36;7.90;97820.16;5033237;28;20479;-78
2021/12/25 12:00:48;;;;;;;0.38;0.38;;;;;;;22.34;7.82;97814.25;5033250;28;20038;-78
2021/12/25 12:03:44;;;;;;;0.30;0.30;;;;;;;22.39;8.02;97817.59;5034735;28;20057;-78
2021/12/25 12:06:12;;;;;;;0.40;0.38;;;;;;;22.35;7.95;97818.56;5032870;28;20468;-78
2021/12/25 12:08:53;;;;;;;0.30;0.30;;;;;;;22.37;7.87;97824.47;5033110;28;20037;-78
2021/12/25 12:11:25;;;;;;;0.30;0.30;;;;;;;22.34;7.98;97819.69;5047557;28;20049;-78
2021/12/25 12:14:14;;;;;;;0.30;0.30;;;;;;;22.40;8.01;97821.09;5052513;28;20044;-78
2021/12/25 12:16:42;;;;;;;0.45;0.40;;;;;;;22.30;8.03;97812.19;5052546;28;20041;-78
2021/12/25 12:19:29;;;;;;;0.50;0.50;;;;;;;22.36;7.96;97823.69;5020090;28;20021;-78
2021/12/25 12:21:54;;;;;;;0.30;0.30;;;;;;;22.30;8.03;97823.06;5052270;28;20033;-78
2021/12/25 12:25:11;;;;;;;0.30;0.30;;;;;;;22.33;8.13;97815.38;5035689;28;20530;-78
2021/12/25 12:27:32;;;;;;;0.45;0.45;;;;;;;22.37;8.07;97816.31;5038855;28;20080;-78
2021/12/25 12:29:58;;;;;;;0.38;0.35;;;;;;;22.36;8.11;97814.72;5037892;28;20542;-78
2021/12/25 12:32:23;;;;;;;0.65;0.50;;;;;;;22.35;8.10;97813.91;5035394;28;20028;-78
2021/12/25 12:34:51;;;;;;;0.30;0.30;;;;;;;22.35;8.20;97813.13;5114810;28;20031;-78
2021/12/25 12:37:16;;;;;;;0.50;0.50;;;;;;;22.34;8.24;97819.69;5115012;28;20038;-78
2021/12/25 12:39:41;;;;;;;0.40;0.40;;;;;;;22.34;8.28;97814.25;5114943;28;20028;-78
2021/12/25 12:42:13;;;;;;;0.40;0.40;;;;;;;22.36;8.17;97820.16;5115004;28;20479;-78
2021/12/25 12:44:38;;;;;;;0.22;0.22;;;;;;;22.35;8.07;97824.00;5097586;28;20027;-79
2021/12/25 12:47:06;;;;;;;1.23;0.30;;;;;;;22.34;8.24;97825.94;5079535;28;20031;-78
2021/12/25 12:49:54;;;;;;;0.40;0.40;;;;;;;22.34;8.26;97815.03;5114918;28;20028;-78
2021/12/25 12:52:24;;;;;;;0.50;0.50;;;;;;;22.35;8.20;97824.00;5106053;28;20396;-78
2021/12/25 12:54:59;;;;;;;0.40;0.40;;;;;;;22.37;8.29;97827.19;5114717;28;20027;-78
2021/12/25 12:57:32;;;;;;;0.30;0.30;;;;;;;22.34;8.31;97825.16;5096467;28;20054;-78
2021/12/25 13:00:00;;;;;;;0.30;0.30;;;;;;;22.33;8.27;97827.03;5096889;28;20034;-78
2021/12/25 13:02:29;;;;;;;0.30;0.30;;;;;;;22.33;8.29;97832.47;5097199;28;20027;-78
2021/12/25 13:04:58;;;;;;;0.40;0.40;;;;;;;22.35;8.18;97821.28;5079493;28;20030;-78